James M Cox Dayton International Airport
KDAY : rendu visible

Aérodrome :











RETROUVEZ-NOUS SUR...

 
LOGIN :

S'inscrire | Disclaimer

   EN    FR    IT 

 









Légende :    VFR   VFR Marginal   IFR   IFR Intensif   IFR Très Intensif
Visi : 
Plafond : 
>= 8 km
>= 3000ft
5 à 8 km
1000 à 3000 ft
1500m à 5 km
500 à 1000 ft
800 à 1500m
200 à 500 ft
< 800m
< 200 ft
Symboles :   Orages  Brouillard  Fortes neiges  Fortes précipitations  Vent > 20 kt







- Altitude de l'aérodrome : 1009 ft
- Code IATA : DAY


KDAY - James M Cox Dayton International

DERNIER METAR :
  • 231756Z 30007KT 10SM CLR 09/M08 A3033 RMK AO2 SLP278 T00891078 10089 21039 58001

METARs EXPIRÉS :
  • 231656Z VRB03KT 10SM CLR 07/M06 A3033 RMK AO2 SLP278 T00671056
  • 231556Z 21005KT 10SM CLR 04/M04 A3034 RMK AO2 SLP283 T00441044

TAF KDAY
Valide du 23 à 18h jusqu'au 24 à 18h UTC


231733Z 2318/2418 24004KT P6SM SKC
FM240000 00000KT P6SM BKN250
FM240900 VRB03KT P6SM BKN120
FM241600 19008KT P6SM VCSH OVC070
FIR KZID / Amérique du Nord



MET'MAP, la Météo Aéronautique d'un coup d'oeil ! - Copyright ORBIFLY Décembre 2007 - Disclaimer

ORBIFLY MET'MAP TEAM :

Programmation & Développement : Alexandra Zaïnal
Conception & Développement : Baudouin d'Aumeries
Co-Programmation & Développement : Marc-Olivier Méhu
Soutien technique & logistique : Manuel Goepfert

Contact : metmap@orbifly.com




SOURCES & CREDITS :

   NOAA       Earth
Advisory